LEMGGMFF

Guest
Details From LEMG - Malaga
To GMFF - SAISS
Flight Number -
Tags generated
Created
Modified
Stats Distance 178 nm / 330 km
Max Altitude 24,500 ft / 7,468 m
Waypoints 5
Social Downloads 1
Likes 0
Share VATSIM

Download

Looking for another format? Having issues loading an existing format? Contact us
Advertisement - Login to hide

Notes

Basic altitude profile: - Ascent Rate: 2500ft/min - Ascent Speed: 250kts - Cruise Altitude: 35000ft - Cruise Speed: 420kts - Descent Rate: 1500ft/min - Descent Speed: 250kts Options: - Use NATs: yes - Use PACOTS: yes - Use low airways: yes - Use high airways: yes

Route

LEMG PIMOS B11 GALTO UB11 TTN GMFF

ID Type Via Altitude Latitude Longitude Leg Dist Tot Dist Heading (true) Name
O LEMG APT - 0 ft / 0 m 36.67978˚ -4.49590˚ - 0 nm - Malaga
PIMOS FIX - 12,200 ft / 3,719 m 36.15027˚ -4.89346˚ 37 nm 37 nm 211° / 211° -
GALTO FIX B11 (AWY-LO) 20,300 ft / 6,187 m 35.83333˚ -5.14361˚ 22 nm 59 nm 213° / 212° -
TTN VOR UB11 (AWY-HI) 24,500 ft / 7,468 m 35.59500˚ -5.32472˚ 16 nm 76 nm 212° / 212° TETOUAN VOR-DME
O GMFF APT - 0 ft / 0 m 33.92733˚ -4.97793˚ 101 nm 178 nm 170° / 170° SAISS

Altitude Profile

Advertisement - Login to hide

Weather


0- 5 10 15 20 25 30 35+ Temperature / ° C

Clouds and Precipitation
Forecast for 2017-12-11 12:00 UTC. Updated 28 minutes ago

Ground ~20,000 ft ~40,000 ft Winds

LEMG

Details ICAO LEMG (AGP)
Name Malaga
Region Spain
Timezone Europe/Madrid (UTC+1.0)
Stats Elevation 52 ft / 16 m (AMSL)
Location 36.679780° -4.495899°
Runways 2
Magnetic Variation 0.878° W

METAR

LEMG 110930Z 30013KT 3000 RA FEW030 BKN050 10/07 Q1003 NOSIG

Decode

TAF

TAF TAF LEMG 110500Z 1106/1206 20012KT 9999 SCT015 TX16/1106Z TN07/1206Z TEMPO 1106/1110 27020G40KT TEMPO 1106/1112 3000 RA BKN010 BECMG 1110/1112 28009KT

Decode

Departure Runways

ID Width Length Bearing (true) Bearing (mag) Surface Threshold Offset Overrun Length
12 148 ft / 45 m 10,057 ft / 3,065 m 117.76° 118.64° Asphalt 0 ft / 0 m 650 ft / 198 m
13 148 ft / 45 m 10,509 ft / 3,203 m 131.69° 132.57° Asphalt 0 ft / 0 m 246 ft / 75 m
30 148 ft / 45 m 10,057 ft / 3,065 m 297.78° 298.66° Asphalt 1,115 ft / 340 m 466 ft / 142 m
31 148 ft / 45 m 10,509 ft / 3,203 m 311.70° 312.58° Asphalt 0 ft / 0 m 246 ft / 75 m

GMFF

Details ICAO GMFF (FEZ)
Name SAISS
Region Morocco
Timezone Africa/Casablanca (UTC+0.0)
Stats Elevation 1,900 ft / 579 m (AMSL)
Location 33.927327° -4.977931°
Runways 1
Magnetic Variation 1.034° W

METAR

GMFF 110900Z 23027KT 7000 FEW030 BKN100 15/06 Q1008 NOSIG

Decode

TAF

TAF TAF GMFF 110500Z 1106/1212 20006KT CAVOK BECMG 1106/1110 24025G37KT SCT033 BKN100 BECMG 1110/1114 5000 RA SCT010 BKN030 FEW033CB PROB40 TEMPO 1112/1119 TSRA

Decode

Destination Runways

ID Width Length Bearing (true) Bearing (mag) Surface Threshold Offset Overrun Length
09 148 ft / 45 m 10,461 ft / 3,189 m 90.26° 91.29° Asphalt 0 ft / 0 m 197 ft / 60 m
27 148 ft / 45 m 10,461 ft / 3,189 m 270.28° 271.31° Asphalt 820 ft / 250 m 0 ft / 0 m